createdAt,value
2022-12-03T00:01:07.251Z,22.48
2022-12-03T00:04:10.337Z,22.50
2022-12-03T00:07:13.544Z,22.52
2022-12-03T00:10:16.647Z,22.54
2022-12-03T00:13:19.637Z,22.53
2022-12-03T00:16:24.183Z,22.55
2022-12-03T00:19:27.349Z,22.48
2022-12-03T00:22:30.410Z,22.51
2022-12-03T00:25:33.462Z,22.52
2022-12-03T00:28:36.458Z,22.52
2022-12-03T00:31:42.244Z,22.53
2022-12-03T00:34:45.658Z,22.39
2022-12-03T00:37:48.719Z,22.52
2022-12-03T00:40:51.786Z,22.49
2022-12-03T00:43:57.509Z,22.50
2022-12-03T00:47:01.981Z,22.50
2022-12-03T00:50:05.271Z,22.47
2022-12-03T00:53:08.339Z,22.52
2022-12-03T00:56:11.355Z,22.49
2022-12-03T00:59:14.440Z,22.51
2022-12-03T01:02:18.962Z,22.50
2022-12-03T01:05:22.282Z,22.50
2022-12-03T01:08:25.407Z,22.51
2022-12-03T01:11:41.436Z,22.44
2022-12-03T01:14:44.487Z,22.48
2022-12-03T01:17:48.902Z,22.50
2022-12-03T01:20:51.984Z,22.52
2022-12-03T01:23:55.045Z,22.53
2022-12-03T01:26:58.108Z,22.49
2022-12-03T01:30:01.134Z,22.50
2022-12-03T01:33:04.619Z,22.49
2022-12-03T01:36:08.137Z,22.50
2022-12-03T01:39:11.149Z,22.52
2022-12-03T01:42:17.989Z,22.45
2022-12-03T01:45:24.163Z,22.44
2022-12-03T01:48:32.673Z,22.48
2022-12-03T01:51:35.804Z,22.50
2022-12-03T01:54:42.081Z,22.50
2022-12-03T01:57:48.790Z,22.48
2022-12-03T02:00:51.893Z,22.42
2022-12-03T02:03:56.311Z,22.42
2022-12-03T02:07:17.996Z,22.50
2022-12-03T02:10:26.708Z,22.49
2022-12-03T02:13:30.140Z,22.50
2022-12-03T02:16:35.665Z,22.44
2022-12-03T02:19:40.361Z,22.45
2022-12-03T02:22:49.599Z,22.49
2022-12-03T02:25:54.122Z,22.46
2022-12-03T02:28:57.745Z,22.49
2022-12-03T02:32:00.859Z,22.49
2022-12-03T02:35:03.933Z,22.48
2022-12-03T02:38:12.977Z,22.50
2022-12-03T02:41:34.084Z,22.49
2022-12-03T02:44:37.154Z,22.48
2022-12-03T02:47:44.950Z,22.48
2022-12-03T02:50:52.095Z,22.47
2022-12-03T02:53:57.405Z,22.47
2022-12-03T02:57:02.286Z,22.49
2022-12-03T03:00:06.172Z,22.41
2022-12-03T03:03:10.198Z,22.47
2022-12-03T03:06:14.096Z,22.50
2022-12-03T03:09:17.138Z,22.50
2022-12-03T03:12:21.506Z,22.48
2022-12-03T03:15:25.516Z,22.47
2022-12-03T03:18:28.532Z,22.47
2022-12-03T03:21:31.934Z,22.48
2022-12-03T03:24:34.999Z,22.48
2022-12-03T03:27:40.242Z,22.49
2022-12-03T03:30:59.556Z,22.47
2022-12-03T03:34:02.701Z,22.46
2022-12-03T03:37:05.938Z,22.48
2022-12-03T03:40:10.088Z,22.41
2022-12-03T03:43:15.025Z,22.48
2022-12-03T03:46:20.045Z,22.46
2022-12-03T03:49:23.698Z,22.47
2022-12-03T03:52:27.049Z,22.47
2022-12-03T03:55:31.089Z,22.46
2022-12-03T03:58:35.896Z,22.47
2022-12-03T04:01:39.365Z,22.46
2022-12-03T04:04:42.426Z,22.48
2022-12-03T04:07:45.562Z,22.47
2022-12-03T04:11:06.134Z,22.49
2022-12-03T04:14:10.677Z,22.48
2022-12-03T04:17:13.790Z,22.48
2022-12-03T04:20:16.988Z,22.48
2022-12-03T04:23:18.954Z,22.50
2022-12-03T04:26:39.457Z,22.48
2022-12-03T04:29:43.877Z,22.48
2022-12-03T04:33:04.175Z,22.45
2022-12-03T04:36:07.516Z,22.47
2022-12-03T04:39:10.548Z,22.48
2022-12-03T04:42:13.605Z,22.46
2022-12-03T04:45:18.068Z,22.44
2022-12-03T04:48:21.157Z,22.43
2022-12-03T04:51:24.228Z,22.41
2022-12-03T04:54:27.507Z,22.38
2022-12-03T04:57:30.490Z,22.36
2022-12-03T05:00:34.973Z,22.35
2022-12-03T05:03:37.990Z,22.34
2022-12-03T05:06:41.513Z,22.32
2022-12-03T05:09:44.574Z,22.28
2022-12-03T05:12:47.642Z,22.30
2022-12-03T05:15:52.097Z,22.29
2022-12-03T05:18:55.092Z,22.30
2022-12-03T05:21:58.246Z,22.30
2022-12-03T05:25:01.311Z,22.27
2022-12-03T05:28:05.144Z,22.33
2022-12-03T05:31:10.023Z,22.33
2022-12-03T05:34:13.046Z,22.33
2022-12-03T05:37:16.206Z,22.34
2022-12-03T05:40:20.011Z,22.32
2022-12-03T05:43:22.077Z,22.34
2022-12-03T05:46:26.557Z,22.34
2022-12-03T05:49:29.645Z,22.37
2022-12-03T05:52:32.651Z,22.37
2022-12-03T05:55:35.729Z,22.34
2022-12-03T05:58:38.788Z,22.33
2022-12-03T06:01:43.286Z,22.32
2022-12-03T06:04:46.471Z,22.30
2022-12-03T06:07:50.582Z,22.29
2022-12-03T06:10:53.688Z,22.26
2022-12-03T06:13:56.894Z,22.24
2022-12-03T06:17:01.367Z,22.23
2022-12-03T06:20:05.445Z,22.23
2022-12-03T06:23:08.599Z,22.22
2022-12-03T06:26:11.692Z,22.21
2022-12-03T06:29:14.756Z,22.21
2022-12-03T06:32:19.177Z,22.21
2022-12-03T06:35:22.176Z,22.21
2022-12-03T06:38:25.205Z,22.22
2022-12-03T06:41:28.212Z,22.20
2022-12-03T06:44:31.308Z,22.21
2022-12-03T06:47:35.731Z,22.14
2022-12-03T06:50:38.795Z,22.20
2022-12-03T06:53:41.880Z,22.17
2022-12-03T06:56:45.643Z,22.14
2022-12-03T06:59:48.849Z,22.17
2022-12-03T07:02:53.285Z,22.14
2022-12-03T07:05:56.417Z,22.17
2022-12-03T07:08:59.534Z,22.17
2022-12-03T07:12:02.612Z,22.18
2022-12-03T07:15:06.435Z,22.18
2022-12-03T07:18:10.856Z,22.17
2022-12-03T07:21:13.842Z,22.17
2022-12-03T07:24:16.932Z,22.17
2022-12-03T07:27:19.988Z,22.16
2022-12-03T07:30:25.577Z,22.15
2022-12-03T07:33:30.478Z,22.15
2022-12-03T07:36:33.461Z,22.13
2022-12-03T07:39:36.632Z,22.15
2022-12-03T07:42:39.706Z,22.13
2022-12-03T07:45:42.806Z,22.15
2022-12-03T07:48:47.449Z,22.05
2022-12-03T07:51:54.307Z,22.14
2022-12-03T07:54:57.441Z,22.19
2022-12-03T07:58:00.462Z,22.22
2022-12-03T08:01:03.588Z,22.22
2022-12-03T08:04:08.197Z,22.24
2022-12-03T08:07:11.253Z,22.21
